Time;durP1;ratioP1;P1;durP2;ratioP2;P2;SDS_P1;SDS_P2;PMS_P1;PMS_P2;Temp;Humidity;BMP_temperature;BMP_pressure;BME280_temperature;BME280_humidity;BME280_pressure;Samples;Min_cycle;Max_cycle;Signal;HPM_P1;HPM_P2
2022/03/05 00:01:06;;;;;;;31.75;18.85;;;6.10;56.20;;;;;;4994090;28;20030;-62
2022/03/05 00:03:32;;;;;;;33.00;19.48;;;6.10;56.10;;;;;;4993235;28;20117;-64
2022/03/05 00:05:58;;;;;;;34.08;19.80;;;6.10;56.10;;;;;;4976991;28;20030;-63
2022/03/05 00:08:24;;;;;;;31.88;18.80;;;6.10;56.20;;;;;;4993905;28;20394;-62
2022/03/05 00:10:50;;;;;;;32.60;19.65;;;6.00;56.30;;;;;;4993077;28;20258;-62
2022/03/05 00:13:16;;;;;;;29.52;19.17;;;6.00;56.50;;;;;;4976371;28;20057;-62
2022/03/05 00:15:43;;;;;;;32.05;19.70;;;6.00;56.40;;;;;;4992965;28;20030;-63
2022/03/05 00:18:09;;;;;;;32.95;19.52;;;6.00;56.30;;;;;;4993878;28;20367;-64
2022/03/05 00:20:34;;;;;;;31.10;19.67;;;6.00;56.30;;;;;;4992670;28;20066;-65
2022/03/05 00:23:00;;;;;;;36.47;19.08;;;6.00;56.30;;;;;;4976626;28;20030;-63
2022/03/05 00:25:26;;;;;;;31.35;18.90;;;6.10;56.30;;;;;;4975913;28;20022;-63
2022/03/05 00:27:53;;;;;;;32.25;20.08;;;6.10;56.30;;;;;;4992741;28;20330;-61
2022/03/05 00:30:19;;;;;;;31.10;19.92;;;6.00;56.50;;;;;;4994119;28;20529;-62
2022/03/05 00:32:48;;;;;;;30.75;19.48;;;5.90;56.50;;;;;;4975097;28;20061;-61
2022/03/05 00:35:14;;;;;;;38.38;20.38;;;6.00;56.50;;;;;;4993880;28;20030;-61
2022/03/05 00:37:40;;;;;;;33.75;19.92;;;6.00;56.70;;;;;;4992375;28;20413;-62
2022/03/05 00:40:09;;;;;;;36.38;20.75;;;6.00;56.50;;;;;;4976247;28;20445;-61
2022/03/05 00:42:35;;;;;;;32.15;19.73;;;6.00;56.50;;;;;;4992774;28;20038;-65
2022/03/05 00:45:01;;;;;;;33.72;19.83;;;6.00;56.60;;;;;;4993369;28;20043;-61
2022/03/05 00:47:27;;;;;;;33.17;20.70;;;6.00;56.40;;;;;;4993203;28;20030;-64
2022/03/05 00:49:53;;;;;;;33.17;19.25;;;6.00;56.50;;;;;;4975457;28;20042;-62
2022/03/05 00:52:20;;;;;;;31.85;20.52;;;6.00;56.40;;;;;;4976196;28;20081;-65
2022/03/05 00:54:45;;;;;;;35.85;20.63;;;5.90;56.40;;;;;;4992441;28;20485;-61
2022/03/05 00:57:11;;;;;;;35.45;19.90;;;6.00;56.40;;;;;;4991794;28;20031;-63
2022/03/05 00:59:37;;;;;;;35.83;21.00;;;6.10;56.40;;;;;;4991545;28;20026;-63
2022/03/05 01:02:03;;;;;;;35.53;20.90;;;6.10;56.20;;;;;;4974319;28;20062;-63
2022/03/05 01:04:29;;;;;;;32.92;20.23;;;6.10;56.20;;;;;;4991014;28;20027;-63
2022/03/05 01:06:55;;;;;;;31.17;19.80;;;6.10;56.20;;;;;;4992011;28;20296;-62
2022/03/05 01:09:20;;;;;;;34.15;20.52;;;6.10;56.20;;;;;;4992958;28;20084;-62
2022/03/05 01:11:46;;;;;;;36.75;20.17;;;6.10;56.00;;;;;;4975012;28;20125;-61
2022/03/05 01:14:12;;;;;;;37.47;22.33;;;6.10;56.30;;;;;;4958915;28;20081;-62
2022/03/05 01:16:38;;;;;;;36.40;20.25;;;6.10;56.20;;;;;;4974321;28;20030;-63
2022/03/05 01:19:04;;;;;;;36.17;20.40;;;6.10;56.20;;;;;;4992395;28;20477;-61
2022/03/05 01:21:29;;;;;;;33.85;20.10;;;6.10;56.10;;;;;;4974242;28;20030;-61
2022/03/05 01:23:56;;;;;;;37.28;21.60;;;6.10;56.00;;;;;;4992134;28;20022;-61
2022/03/05 01:26:40;;;;;;;38.60;20.65;;;6.10;56.00;;;;;;4993033;28;20048;-62
2022/03/05 01:29:06;;;;;;;33.50;20.20;;;6.10;56.00;;;;;;4992581;28;20466;-62
2022/03/05 01:31:32;;;;;;;41.17;21.10;;;6.10;56.00;;;;;;4992721;28;20037;-62
2022/03/05 01:33:58;;;;;;;36.72;21.95;;;6.10;56.00;;;;;;4991571;28;20057;-61
2022/03/05 01:36:23;;;;;;;37.60;23.00;;;6.10;56.90;;;;;;4975185;28;20230;-62
2022/03/05 01:38:49;;;;;;;35.50;21.42;;;6.00;56.50;;;;;;4991981;28;20022;-62
2022/03/05 01:41:15;;;;;;;37.40;23.13;;;6.00;56.50;;;;;;4992602;28;20061;-62
2022/03/05 01:43:41;;;;;;;34.47;21.48;;;6.00;56.60;;;;;;4991975;28;20045;-62
2022/03/05 01:46:07;;;;;;;36.88;22.00;;;6.00;56.70;;;;;;4992056;28;20031;-62
2022/03/05 01:48:32;;;;;;;39.20;22.73;;;6.10;56.50;;;;;;4974888;28;20481;-61
2022/03/05 01:50:58;;;;;;;35.80;21.95;;;6.00;56.50;;;;;;4991814;28;20581;-63
2022/03/05 01:53:24;;;;;;;36.03;21.35;;;5.90;56.70;;;;;;4991786;28;20485;-60
2022/03/05 01:55:50;;;;;;;38.58;22.05;;;5.90;57.00;;;;;;4991030;28;20046;-64
2022/03/05 01:58:16;;;;;;;37.70;23.48;;;5.90;56.90;;;;;;4991035;28;20477;-64
2022/03/05 02:00:42;;;;;;;39.72;22.92;;;5.80;57.20;;;;;;4973873;28;20034;-63
2022/03/05 02:05:52;;;;;;;39.05;23.08;;;5.90;57.30;;;;;;4991568;28;20084;-63
2022/03/05 02:08:18;;;;;;;37.25;22.23;;;5.90;57.50;;;;;;4991805;28;20109;-63
2022/03/05 02:10:44;;;;;;;38.78;22.13;;;5.90;57.30;;;;;;4974339;28;20429;-63
2022/03/05 02:13:09;;;;;;;37.17;22.40;;;6.00;57.40;;;;;;4991631;28;20027;-63
2022/03/05 02:15:35;;;;;;;36.47;22.35;;;6.00;57.40;;;;;;4974734;28;20034;-64
2022/03/05 02:18:01;;;;;;;33.00;21.55;;;6.10;57.40;;;;;;4991573;28;20492;-62
2022/03/05 02:20:30;;;;;;;43.30;23.10;;;6.10;57.40;;;;;;4991853;28;20033;-63
2022/03/05 02:22:56;;;;;;;38.30;21.23;;;6.10;57.60;;;;;;4990325;28;20045;-63
2022/03/05 02:25:21;;;;;;;41.28;23.08;;;6.10;57.70;;;;;;4992110;28;20474;-62
2022/03/05 02:27:47;;;;;;;36.90;22.10;;;6.10;58.00;;;;;;4991389;28;20097;-62
2022/03/05 02:30:13;;;;;;;40.35;23.13;;;6.20;58.20;;;;;;4991593;28;20061;-62
2022/03/05 02:32:39;;;;;;;39.42;23.92;;;6.20;58.30;;;;;;4992115;28;20537;-66
2022/03/05 02:35:05;;;;;;;36.55;23.25;;;6.20;58.50;;;;;;4995347;28;20077;-63
2022/03/05 02:37:31;;;;;;;37.25;23.50;;;6.10;58.40;;;;;;4996107;28;20441;-62
2022/03/05 02:39:56;;;;;;;37.05;23.75;;;6.10;58.50;;;;;;4995157;28;20165;-62
2022/03/05 02:42:22;;;;;;;37.47;22.75;;;6.10;58.50;;;;;;4977924;28;20441;-63
2022/03/05 02:44:48;;;;;;;36.55;22.50;;;6.10;58.20;;;;;;4994763;28;20080;-63
2022/03/05 02:47:14;;;;;;;35.03;22.73;;;6.10;58.30;;;;;;4995558;28;20117;-63
2022/03/05 02:49:40;;;;;;;36.67;22.63;;;6.10;58.30;;;;;;4995408;28;20497;-63
2022/03/05 02:52:06;;;;;;;38.80;23.60;;;6.10;58.20;;;;;;4995400;28;20489;-63
2022/03/05 02:54:32;;;;;;;38.28;23.35;;;6.00;58.20;;;;;;4978384;28;20477;-63
2022/03/05 02:56:58;;;;;;;35.70;23.00;;;6.00;58.20;;;;;;4977251;28;20030;-63
2022/03/05 02:59:25;;;;;;;34.42;22.67;;;6.10;58.20;;;;;;4995554;28;20097;-62
2022/03/05 03:01:50;;;;;;;36.58;23.48;;;6.10;58.00;;;;;;4994725;28;20030;-62
2022/03/05 03:04:16;;;;;;;40.38;24.25;;;6.00;58.10;;;;;;4978017;28;20384;-63
2022/03/05 03:06:42;;;;;;;39.90;24.00;;;6.00;58.00;;;;;;4995213;28;20030;-67
2022/03/05 03:09:08;;;;;;;36.33;23.23;;;6.00;58.00;;;;;;4976845;28;20389;-63
2022/03/05 03:11:34;;;;;;;40.78;22.55;;;6.00;58.20;;;;;;4995457;28;20041;-62
2022/03/05 03:14:00;;;;;;;37.67;23.08;;;6.00;58.30;;;;;;4994956;28;20380;-64
2022/03/05 03:16:26;;;;;;;36.03;23.08;;;5.90;58.20;;;;;;4995101;28;20035;-63
2022/03/05 03:18:51;;;;;;;36.30;23.27;;;5.90;58.20;;;;;;4977030;28;20026;-63
2022/03/05 03:21:17;;;;;;;38.88;23.55;;;5.90;58.20;;;;;;4995019;28;20026;-63
2022/03/05 03:23:43;;;;;;;41.50;23.80;;;5.90;58.20;;;;;;4994835;28;20029;-66
2022/03/05 03:26:09;;;;;;;36.95;23.05;;;5.90;58.40;;;;;;4994379;28;20535;-63
2022/03/05 03:28:34;;;;;;;36.50;22.67;;;5.90;58.40;;;;;;4994622;28;20131;-62
2022/03/05 03:31:00;;;;;;;39.33;24.35;;;5.90;58.50;;;;;;4976430;28;20034;-63
2022/03/05 03:33:26;;;;;;;40.47;23.67;;;5.90;58.50;;;;;;4994784;28;20417;-64
2022/03/05 03:35:52;;;;;;;36.38;22.83;;;5.90;58.50;;;;;;4993850;28;20046;-63
2022/03/05 03:38:18;;;;;;;38.70;23.38;;;5.90;58.50;;;;;;4995517;28;20143;-62
2022/03/05 03:40:44;;;;;;;36.30;23.17;;;6.00;58.40;;;;;;4994406;28;20056;-62
2022/03/05 03:43:09;;;;;;;37.55;23.05;;;6.00;58.30;;;;;;4993483;28;20453;-62
2022/03/05 03:45:54;;;;;;;36.05;24.35;;;5.90;58.40;;;;;;4977345;28;20049;-63
2022/03/05 03:48:19;;;;;;;38.22;22.25;;;6.00;58.40;;;;;;4994774;28;20026;-64
2022/03/05 03:50:45;;;;;;;41.03;23.90;;;6.00;58.20;;;;;;4993770;28;20030;-66
2022/03/05 03:53:11;;;;;;;38.65;23.60;;;6.10;58.20;;;;;;4994183;28;20525;-63
2022/03/05 03:55:37;;;;;;;42.20;25.50;;;6.10;58.80;;;;;;4993900;28;20042;-63
2022/03/05 03:58:04;;;;;;;39.85;24.48;;;5.90;58.30;;;;;;4993863;28;20034;-63
2022/03/05 04:00:30;;;;;;;38.72;23.90;;;5.90;58.50;;;;;;4976845;28;20033;-64
2022/03/05 04:02:56;;;;;;;40.75;24.20;;;5.90;58.60;;;;;;4993804;28;20331;-64
2022/03/05 04:05:21;;;;;;;38.35;23.48;;;5.90;58.60;;;;;;4993824;28;20462;-62
2022/03/05 04:10:31;;;;;;;39.05;24.33;;;5.80;58.60;;;;;;4979869;28;20097;-63
2022/03/05 04:12:57;;;;;;;36.78;22.88;;;5.70;58.60;;;;;;4993586;28;20030;-63
2022/03/05 04:15:24;;;;;;;36.58;22.83;;;5.70;58.70;;;;;;4993874;28;20037;-63
2022/03/05 04:17:50;;;;;;;36.25;23.60;;;5.70;58.80;;;;;;4976229;28;20026;-66
2022/03/05 04:20:16;;;;;;;38.60;23.73;;;5.70;58.80;;;;;;4993887;28;20458;-63
2022/03/05 04:22:42;;;;;;;41.88;25.35;;;5.70;58.90;;;;;;4976409;28;20037;-64
2022/03/05 04:25:09;;;;;;;37.75;24.42;;;5.60;59.00;;;;;;4993609;28;20030;-64
2022/03/05 04:27:35;;;;;;;39.67;24.38;;;5.50;59.20;;;;;;4976687;28;20488;-63
2022/03/05 04:30:01;;;;;;;41.03;24.65;;;5.50;59.30;;;;;;4975822;28;20034;-63
2022/03/05 04:32:27;;;;;;;39.28;24.35;;;5.50;59.40;;;;;;4992393;28;20037;-63
2022/03/05 04:34:52;;;;;;;41.38;25.38;;;5.50;59.40;;;;;;4992049;28;20023;-66
2022/03/05 04:37:18;;;;;;;41.50;24.42;;;5.40;59.50;;;;;;4976150;28;20038;-62
2022/03/05 04:39:44;;;;;;;39.53;25.15;;;5.40;59.50;;;;;;4976224;28;20102;-62
2022/03/05 04:42:10;;;;;;;42.20;24.88;;;5.40;59.60;;;;;;4975671;28;20085;-62
2022/03/05 04:44:35;;;;;;;42.70;25.67;;;5.40;59.60;;;;;;4993765;28;20030;-63
2022/03/05 04:47:01;;;;;;;42.22;24.63;;;5.40;59.60;;;;;;4992989;28;20061;-63
2022/03/05 04:49:28;;;;;;;38.30;24.25;;;5.40;59.80;;;;;;4975468;28;20112;-63
2022/03/05 04:51:54;;;;;;;37.92;23.38;;;5.40;59.90;;;;;;4975530;28;20027;-67
2022/03/05 04:54:20;;;;;;;38.35;23.85;;;5.40;60.00;;;;;;4993189;28;20042;-64
2022/03/05 04:56:46;;;;;;;42.35;26.02;;;5.40;59.80;;;;;;4975056;28;20437;-63
2022/03/05 04:59:12;;;;;;;40.42;25.33;;;5.40;59.80;;;;;;4992668;28;20099;-63
2022/03/05 05:01:38;;;;;;;40.42;25.50;;;5.50;59.80;;;;;;4993545;28;20385;-62
2022/03/05 05:04:04;;;;;;;38.65;23.70;;;5.40;60.50;;;;;;4992129;28;20440;-64
2022/03/05 05:06:30;;;;;;;39.65;23.65;;;5.40;59.80;;;;;;4993136;28;20456;-64
2022/03/05 05:08:56;;;;;;;38.95;24.30;;;5.40;59.90;;;;;;4974807;28;20121;-63
2022/03/05 05:11:22;;;;;;;40.33;24.17;;;5.50;59.80;;;;;;4975779;28;20022;-63
2022/03/05 05:13:48;;;;;;;43.20;26.60;;;5.50;59.80;;;;;;4993373;28;20420;-63
2022/03/05 05:16:13;;;;;;;42.42;25.65;;;5.50;59.70;;;;;;4992151;28;20435;-62
2022/03/05 05:19:24;;;;;;;41.72;24.20;;;5.50;59.60;;;;;;4993148;28;20450;-63
2022/03/05 05:21:25;;;;;;;37.95;23.88;;;5.60;59.60;;;;;;4992811;28;20030;-63
2022/03/05 05:23:51;;;;;;;39.90;24.17;;;5.60;59.50;;;;;;4975669;28;20034;-63
2022/03/05 05:26:16;;;;;;;41.92;23.90;;;5.60;59.30;;;;;;4974443;28;20634;-62
2022/03/05 05:28:42;;;;;;;35.13;22.65;;;5.60;59.20;;;;;;4992280;28;20037;-63
2022/03/05 05:31:08;;;;;;;41.10;25.35;;;5.60;59.10;;;;;;4992168;28;20018;-62
2022/03/05 05:33:33;;;;;;;37.67;23.88;;;5.60;59.10;;;;;;4992222;28;20058;-63
2022/03/05 05:35:59;;;;;;;39.45;23.55;;;5.60;59.30;;;;;;4991821;28;20042;-66
2022/03/05 05:38:25;;;;;;;43.25;23.35;;;5.60;59.20;;;;;;4992598;28;20044;-63
2022/03/05 05:40:50;;;;;;;37.33;24.33;;;5.60;59.10;;;;;;4992661;28;20037;-62
2022/03/05 05:43:16;;;;;;;36.55;22.05;;;5.70;59.00;;;;;;4991919;28;20110;-63
2022/03/05 05:45:42;;;;;;;37.05;23.20;;;5.70;59.00;;;;;;4992080;28;20034;-63
2022/03/05 05:48:08;;;;;;;40.85;24.65;;;5.70;59.00;;;;;;4991967;28;20061;-62
2022/03/05 05:50:33;;;;;;;36.72;23.92;;;5.70;59.00;;;;;;4992410;28;20184;-63
2022/03/05 05:52:59;;;;;;;43.40;23.67;;;5.70;58.90;;;;;;4991418;28;20030;-64
2022/03/05 05:55:25;;;;;;;42.88;24.08;;;5.70;58.90;;;;;;4992208;28;20126;-63
2022/03/05 05:57:51;;;;;;;36.50;23.17;;;5.70;58.90;;;;;;4991203;28;20030;-63
2022/03/05 06:00:17;;;;;;;39.60;23.05;;;5.80;58.80;;;;;;4974217;28;20146;-66
2022/03/05 06:02:42;;;;;;;53.92;24.60;;;5.70;58.80;;;;;;4991688;28;20584;-63
2022/03/05 06:05:09;;;;;;;36.60;23.15;;;5.70;58.90;;;;;;4974132;28;20125;-63
2022/03/05 06:07:34;;;;;;;39.60;23.73;;;5.70;58.90;;;;;;4991039;28;20034;-63
2022/03/05 06:10:00;;;;;;;39.75;24.10;;;5.70;58.80;;;;;;4991211;28;20424;-66
2022/03/05 06:12:26;;;;;;;36.97;23.58;;;5.70;58.70;;;;;;4992397;28;20031;-63
2022/03/05 06:14:52;;;;;;;39.72;23.83;;;5.80;58.70;;;;;;4992282;28;20054;-63
2022/03/05 06:17:17;;;;;;;41.63;24.27;;;5.80;58.60;;;;;;4991569;28;20124;-63
2022/03/05 06:19:44;;;;;;;41.67;24.73;;;5.90;58.40;;;;;;4992437;28;20046;-64
2022/03/05 06:22:09;;;;;;;35.05;22.50;;;5.90;58.30;;;;;;4992161;28;20407;-62
2022/03/05 06:24:35;;;;;;;37.72;23.23;;;5.90;58.20;;;;;;4990738;28;20153;-63
2022/03/05 06:27:01;;;;;;;38.58;23.77;;;6.00;58.10;;;;;;4991646;28;20042;-67
2022/03/05 06:29:27;;;;;;;39.05;23.48;;;6.10;58.10;;;;;;4992521;28;20042;-63
2022/03/05 06:31:54;;;;;;;40.22;23.15;;;6.10;57.80;;;;;;4991447;28;20037;-63
2022/03/05 06:34:20;;;;;;;36.67;24.23;;;6.20;57.70;;;;;;4989749;28;20280;-63
2022/03/05 06:36:46;;;;;;;40.33;23.90;;;6.30;57.30;;;;;;4974175;28;20125;-63
2022/03/05 06:39:11;;;;;;;37.58;23.20;;;6.30;57.10;;;;;;4973365;28;20438;-62
2022/03/05 06:41:37;;;;;;;40.95;23.55;;;6.40;57.10;;;;;;4974199;28;20466;-62
2022/03/05 06:44:03;;;;;;;38.83;24.25;;;6.40;56.90;;;;;;4991067;28;20027;-66
2022/03/05 06:46:29;;;;;;;41.20;24.48;;;6.40;56.70;;;;;;4991356;28;20100;-65
2022/03/05 06:48:54;;;;;;;39.72;23.77;;;6.50;56.80;;;;;;4974189;28;20027;-63
2022/03/05 06:51:20;;;;;;;37.63;22.95;;;6.50;56.50;;;;;;4973290;28;20601;-63
2022/03/05 06:53:46;;;;;;;37.60;23.80;;;6.60;56.30;;;;;;4991770;28;20113;-64
2022/03/05 06:56:12;;;;;;;44.95;24.23;;;6.60;56.20;;;;;;4990848;28;20041;-63
2022/03/05 06:58:37;;;;;;;41.13;22.98;;;6.60;56.20;;;;;;4991769;28;20030;-63
2022/03/05 07:01:03;;;;;;;42.15;22.80;;;6.60;56.00;;;;;;4990698;28;20552;-67
2022/03/05 07:03:29;;;;;;;46.92;23.63;;;6.70;55.90;;;;;;4991431;28;20106;-63
2022/03/05 07:05:55;;;;;;;35.63;23.63;;;6.80;55.70;;;;;;4991802;28;20034;-63
2022/03/05 07:08:20;;;;;;;41.72;22.73;;;6.80;55.20;;;;;;4973346;28;20487;-63
2022/03/05 07:10:46;;;;;;;37.15;22.20;;;6.90;55.10;;;;;;4974298;28;20027;-63
2022/03/05 07:13:12;;;;;;;40.85;22.25;;;6.90;55.00;;;;;;4990976;28;20024;-63
2022/03/05 07:15:38;;;;;;;49.17;25.65;;;6.80;55.20;;;;;;4990379;28;20458;-64
2022/03/05 07:18:04;;;;;;;43.92;23.35;;;6.90;55.20;;;;;;4989705;28;20033;-67
2022/03/05 07:20:30;;;;;;;39.35;22.40;;;6.90;55.10;;;;;;4994504;28;20130;-65
2022/03/05 07:22:55;;;;;;;45.38;22.83;;;7.00;55.10;;;;;;4977287;28;20358;-62
2022/03/05 07:25:21;;;;;;;39.33;23.30;;;7.10;55.10;;;;;;4976407;28;20169;-64
2022/03/05 07:27:47;;;;;;;40.65;21.98;;;7.20;54.80;;;;;;4993936;28;20033;-63
2022/03/05 07:30:13;;;;;;;39.67;24.00;;;7.40;54.50;;;;;;4993673;28;20026;-63
2022/03/05 07:32:39;;;;;;;34.55;22.13;;;7.50;54.00;;;;;;4993904;28;20458;-63
2022/03/05 07:35:05;;;;;;;32.15;22.50;;;7.70;53.60;;;;;;4993824;28;20026;-69
2022/03/05 07:37:31;;;;;;;34.67;21.58;;;7.80;53.20;;;;;;4975943;28;20034;-64
2022/03/05 07:39:57;;;;;;;32.63;22.00;;;8.00;52.80;;;;;;4994142;28;20035;-63
2022/03/05 07:42:23;;;;;;;40.35;22.65;;;8.10;52.30;;;;;;4976239;28;20474;-67
2022/03/05 07:44:49;;;;;;;38.65;23.40;;;8.20;51.80;;;;;;4975822;28;20117;-63
2022/03/05 07:47:15;;;;;;;31.88;21.60;;;8.30;51.60;;;;;;4993259;28;20030;-64
2022/03/05 07:49:40;;;;;;;35.13;22.25;;;8.50;51.30;;;;;;4994145;28;20026;-63
2022/03/05 07:52:06;;;;;;;30.02;20.85;;;8.60;50.40;;;;;;4993300;28;20038;-68
2022/03/05 07:54:32;;;;;;;32.95;22.60;;;8.70;50.50;;;;;;4992406;28;20027;-64
2022/03/05 07:56:58;;;;;;;29.52;20.73;;;8.90;50.00;;;;;;4993865;28;20038;-63
2022/03/05 07:59:24;;;;;;;30.35;20.25;;;9.10;49.40;;;;;;4975492;28;20053;-65
2022/03/05 08:01:49;;;;;;;31.75;20.90;;;9.20;48.10;;;;;;4993433;28;20026;-62
2022/03/05 08:04:16;;;;;;;28.20;19.80;;;9.40;48.30;;;;;;4975701;28;20027;-62
2022/03/05 08:06:41;;;;;;;30.60;21.17;;;9.50;47.90;;;;;;4993540;28;20489;-63
2022/03/05 08:09:07;;;;;;;28.70;19.67;;;9.70;47.50;;;;;;4975158;28;20026;-69
2022/03/05 08:11:33;;;;;;;28.30;20.23;;;9.90;46.80;;;;;;4993086;28;20034;-64
2022/03/05 08:13:59;;;;;;;28.00;20.08;;;10.00;46.10;;;;;;4975469;28;20090;-63
2022/03/05 08:16:25;;;;;;;29.55;20.13;;;10.00;46.00;;;;;;4975182;28;20096;-64
2022/03/05 08:18:51;;;;;;;28.75;20.33;;;10.00;45.80;;;;;;4993632;28;20058;-63
2022/03/05 08:21:17;;;;;;;29.55;20.60;;;10.10;45.90;;;;;;4992500;28;20042;-64
2022/03/05 08:23:43;;;;;;;28.60;20.17;;;10.20;45.90;;;;;;4975938;28;20037;-64
2022/03/05 08:26:13;;;;;;;25.35;19.92;;;10.30;45.50;;;;;;4975706;28;20035;-68
2022/03/05 08:28:41;;;;;;;27.50;20.15;;;10.30;44.40;;;;;;4975679;28;20030;-64
2022/03/05 08:31:06;;;;;;;28.67;20.05;;;10.00;45.40;;;;;;4992438;28;20054;-66
2022/03/05 08:33:32;;;;;;;28.17;20.00;;;10.10;44.90;;;;;;4992742;28;20077;-65
2022/03/05 08:35:58;;;;;;;29.83;20.42;;;10.00;44.90;;;;;;4975922;28;20031;-63
2022/03/05 08:38:24;;;;;;;36.70;22.30;;;10.00;45.30;;;;;;4974809;28;20029;-66
2022/03/05 08:40:50;;;;;;;28.40;20.27;;;10.10;45.70;;;;;;4975589;28;20457;-62
2022/03/05 08:43:16;;;;;;;33.40;21.73;;;10.30;44.90;;;;;;4974806;28;20030;-63
2022/03/05 08:45:41;;;;;;;33.83;21.80;;;10.30;45.10;;;;;;4992908;28;20022;-66
2022/03/05 08:48:08;;;;;;;34.92;21.77;;;10.40;44.70;;;;;;4993052;28;20377;-67
2022/03/05 08:50:35;;;;;;;31.17;22.13;;;10.40;45.00;;;;;;4991862;28;20034;-63
2022/03/05 08:53:02;;;;;;;31.20;22.08;;;10.60;45.30;;;;;;4993468;28;20041;-62
2022/03/05 08:55:27;;;;;;;36.90;23.38;;;11.10;45.00;;;;;;4988518;28;20041;-64
2022/03/05 08:57:53;;;;;;;39.45;24.02;;;11.60;43.90;;;;;;4993993;28;20038;-64
2022/03/05 09:00:19;;;;;;;37.72;22.92;;;11.40;43.30;;;;;;4993305;28;20466;-62
2022/03/05 09:02:45;;;;;;;31.20;23.05;;;11.40;43.30;;;;;;4975762;28;20081;-64
2022/03/05 09:05:14;;;;;;;31.67;23.05;;;11.00;43.80;;;;;;4993144;28;20427;-65
2022/03/05 09:07:42;;;;;;;32.28;24.20;;;10.50;44.90;;;;;;4975788;28;20393;-64
2022/03/05 09:10:09;;;;;;;41.15;24.23;;;10.60;45.30;;;;;;4975902;28;20027;-66
2022/03/05 09:12:35;;;;;;;36.50;22.90;;;10.60;45.40;;;;;;4991356;28;20034;-66
2022/03/05 09:15:01;;;;;;;34.38;23.08;;;10.60;45.40;;;;;;4993028;28;20022;-66
2022/03/05 09:17:27;;;;;;;47.30;26.45;;;10.60;45.20;;;;;;4974263;28;20030;-68
2022/03/05 09:19:53;;;;;;;31.00;23.58;;;10.50;45.40;;;;;;4974860;28;20111;-64
2022/03/05 09:22:20;;;;;;;34.53;24.23;;;10.20;45.80;;;;;;4975044;28;20029;-64
2022/03/05 09:24:45;;;;;;;41.78;25.05;;;10.00;46.30;;;;;;4975868;28;20018;-64
2022/03/05 09:27:12;;;;;;;35.15;24.95;;;9.80;46.70;;;;;;4974797;28;20485;-68
2022/03/05 09:29:38;;;;;;;37.92;23.77;;;9.80;46.90;;;;;;4974619;28;20022;-66
2022/03/05 09:32:04;;;;;;;39.20;24.95;;;9.80;47.40;;;;;;4975353;28;20026;-65
2022/03/05 09:34:30;;;;;;;38.25;23.80;;;9.90;47.10;;;;;;4991775;28;20133;-65
2022/03/05 09:36:56;;;;;;;40.30;23.58;;;9.80;46.90;;;;;;4992263;28;20546;-64
2022/03/05 09:39:22;;;;;;;42.03;24.75;;;9.90;46.80;;;;;;4992055;28;20390;-65
2022/03/05 09:41:48;;;;;;;35.03;23.48;;;9.90;46.40;;;;;;4974588;28;20033;-64
2022/03/05 09:44:15;;;;;;;46.28;24.05;;;9.80;46.20;;;;;;4974242;28;20029;-69
2022/03/05 09:46:42;;;;;;;42.00;24.17;;;9.80;46.40;;;;;;4992351;28;20038;-67
2022/03/05 09:49:08;;;;;;;37.80;25.80;;;10.00;46.10;;;;;;4974573;28;20050;-65
2022/03/05 09:51:35;;;;;;;34.97;25.17;;;10.20;46.20;;;;;;4974642;28;20022;-65
2022/03/05 09:54:03;;;;;;;34.28;24.92;;;10.40;46.00;;;;;;4975505;28;20413;-65
2022/03/05 09:56:29;;;;;;;39.47;25.98;;;10.40;45.40;;;;;;4974801;28;20038;-66
2022/03/05 09:58:55;;;;;;;40.20;26.50;;;10.50;45.30;;;;;;4975150;28;20122;-65
2022/03/05 10:01:21;;;;;;;36.30;23.67;;;10.50;45.20;;;;;;4974782;28;20057;-65
2022/03/05 10:03:51;;;;;;;45.35;25.88;;;10.50;45.20;;;;;;4992436;28;20065;-65
2022/03/05 10:06:26;;;;;;;36.97;24.00;;;10.70;44.50;;;;;;4992044;28;20110;-66
2022/03/05 10:08:52;;;;;;;35.95;23.58;;;10.70;44.40;;;;;;4992773;28;20034;-65
2022/03/05 10:11:19;;;;;;;34.55;22.40;;;10.90;43.60;;;;;;4992230;28;20022;-65
2022/03/05 10:13:45;;;;;;;34.17;24.13;;;11.10;42.70;;;;;;4992202;28;20084;-66
2022/03/05 10:16:32;;;;;;;33.38;22.10;;;11.30;42.30;;;;;;4974950;28;20043;-65
2022/03/05 10:19:18;;;;;;;40.63;25.42;;;11.00;41.90;;;;;;4992405;28;20030;-64
2022/03/05 10:22:08;;;;;;;42.05;25.98;;;10.90;42.80;;;;;;4975261;28;20465;-65
2022/03/05 10:24:39;;;;;;;36.72;24.45;;;10.60;43.70;;;;;;4974729;28;20421;-66
2022/03/05 10:27:07;;;;;;;44.17;25.42;;;10.40;43.80;;;;;;4992480;28;20030;-66
2022/03/05 10:29:36;;;;;;;40.03;26.48;;;10.20;44.60;;;;;;4991637;28;20527;-67
2022/03/05 10:32:06;;;;;;;42.75;25.35;;;10.30;44.80;;;;;;4975351;28;20117;-72
2022/03/05 10:34:50;;;;;;;40.97;26.08;;;10.20;45.00;;;;;;4991772;28;20065;-67
2022/03/05 10:37:18;;;;;;;45.28;27.27;;;10.50;45.00;;;;;;4975083;28;20047;-72
2022/03/05 10:39:45;;;;;;;38.55;24.27;;;10.70;44.10;;;;;;4992540;28;20026;-67
2022/03/05 10:42:25;;;;;;;40.45;23.63;;;10.90;43.10;;;;;;4974969;28;20073;-66
2022/03/05 10:45:18;;;;;;;43.22;24.15;;;11.00;43.00;;;;;;4974143;28;20055;-67
2022/03/05 10:47:46;;;;;;;39.25;25.50;;;11.10;42.20;;;;;;4976237;28;20045;-67
2022/03/05 10:50:27;;;;;;;39.33;24.80;;;11.00;42.70;;;;;;4992345;28;20109;-67
2022/03/05 10:53:02;;;;;;;39.65;25.73;;;11.10;42.40;;;;;;4975002;28;20398;-67
2022/03/05 10:55:37;;;;;;;36.13;22.15;;;11.10;42.50;;;;;;4977889;28;20030;-68
2022/03/05 10:58:20;;;;;;;32.65;21.98;;;11.10;42.10;;;;;;4996527;28;20038;-67
2022/03/05 11:00:49;;;;;;;37.65;25.08;;;11.00;42.30;;;;;;4996284;28;20033;-69
2022/03/05 11:03:15;;;;;;;39.92;25.55;;;11.00;42.60;;;;;;4996202;28;20022;-66
2022/03/05 11:05:42;;;;;;;32.17;22.15;;;10.80;42.70;;;;;;4995457;28;20034;-67
2022/03/05 11:08:09;;;;;;;32.53;21.90;;;10.70;43.00;;;;;;4978342;28;20030;-67
2022/03/05 11:10:35;;;;;;;39.50;28.23;;;10.50;43.20;;;;;;4977944;28;20038;-69
2022/03/05 11:13:03;;;;;;;29.50;20.23;;;10.40;43.20;;;;;;4978283;28;20018;-69
2022/03/05 11:15:30;;;;;;;29.77;21.55;;;10.10;43.40;;;;;;4977814;28;20030;-64
2022/03/05 11:17:59;;;;;;;31.35;22.08;;;9.90;43.70;;;;;;4978554;28;20114;-67
2022/03/05 11:20:26;;;;;;;27.88;20.20;;;9.90;43.80;;;;;;4994770;28;20096;-65
2022/03/05 11:22:56;;;;;;;34.20;22.42;;;9.90;43.90;;;;;;4977934;28;20023;-69
2022/03/05 11:25:25;;;;;;;31.92;21.83;;;9.80;43.80;;;;;;4961563;28;20034;-66
2022/03/05 11:27:59;;;;;;;31.63;21.65;;;9.80;43.70;;;;;;4978388;28;20030;-68
2022/03/05 11:30:27;;;;;;;31.90;19.98;;;9.90;42.80;;;;;;4977579;28;20030;-68
2022/03/05 11:32:53;;;;;;;29.90;19.85;;;9.90;42.00;;;;;;4977425;28;20050;-67
2022/03/05 11:35:22;;;;;;;32.08;20.50;;;9.80;42.10;;;;;;4961445;28;20033;-68
2022/03/05 11:37:50;;;;;;;28.40;19.58;;;9.70;42.20;;;;;;4977661;28;20031;-66
2022/03/05 11:40:42;;;;;;;30.08;19.98;;;9.80;42.10;;;;;;4995365;28;20120;-66
2022/03/05 11:43:25;;;;;;;30.30;20.83;;;9.70;42.10;;;;;;4977623;28;20031;-67
2022/03/05 11:45:58;;;;;;;39.67;24.30;;;9.80;42.00;;;;;;4995015;28;20029;-65
2022/03/05 11:48:25;;;;;;;32.95;21.33;;;9.90;42.20;;;;;;4994017;28;20030;-66
2022/03/05 11:50:52;;;;;;;29.70;20.98;;;10.00;41.90;;;;;;4976842;28;20109;-66
2022/03/05 11:53:19;;;;;;;31.52;21.27;;;10.00;41.80;;;;;;4977447;28;20033;-66
2022/03/05 11:55:46;;;;;;;29.08;19.85;;;10.10;41.80;;;;;;4994240;28;20034;-67
2022/03/05 11:58:16;;;;;;;29.50;19.63;;;10.20;41.50;;;;;;4977203;28;20121;-66
2022/03/05 12:00:49;;;;;;;28.27;18.90;;;10.20;40.90;;;;;;4976315;28;20477;-66
2022/03/05 12:03:38;;;;;;;27.80;19.05;;;10.30;41.00;;;;;;4976404;28;20081;-66
2022/03/05 12:06:05;;;;;;;28.38;20.02;;;10.40;40.50;;;;;;4994254;28;20428;-65
2022/03/05 12:08:32;;;;;;;27.38;18.70;;;10.40;40.20;;;;;;4994010;28;20122;-66
2022/03/05 12:11:20;;;;;;;30.08;19.25;;;10.40;40.30;;;;;;4976841;28;20026;-67
2022/03/05 12:13:58;;;;;;;33.60;23.02;;;10.30;40.40;;;;;;4976428;28;20088;-67
2022/03/05 12:16:28;;;;;;;31.65;20.70;;;10.20;40.50;;;;;;4976338;28;20126;-73
2022/03/05 12:18:59;;;;;;;25.50;18.08;;;10.30;40.70;;;;;;4976316;28;20030;-67
2022/03/05 12:21:33;;;;;;;25.85;18.08;;;10.40;40.10;;;;;;4993562;28;20022;-68
2022/03/05 12:24:02;;;;;;;26.27;17.35;;;10.30;40.10;;;;;;4990692;28;20089;-63
2022/03/05 12:26:36;;;;;;;26.45;19.13;;;10.50;40.20;;;;;;4992598;28;20034;-70
2022/03/05 12:29:03;;;;;;;;;;;10.60;39.80;;;;;;4976624;28;20030;-69
2022/03/05 12:31:48;;;;;;;44.95;30.20;;;10.60;39.30;;;;;;4975899;28;20008;-65
2022/03/05 12:34:26;;;;;;;28.65;18.48;;;10.50;38.40;;;;;;4994150;28;20042;-65
2022/03/05 12:36:52;;;;;;;23.73;16.08;;;10.30;39.10;;;;;;4993609;28;20125;-66
2022/03/05 12:39:24;;;;;;;49.05;31.48;;;10.40;39.30;;;;;;4976410;28;20037;-66